Ridgefield, Washington
Current Conditions -  °F | °C
As of 1:53 AM on Wednesday 22 Oct 2014 (Local Time) from KSPB Reporting Station
Light Rain Light Rain  
Wind Chill: 54°   Ceiling: 2800
Heat Index: 54°   Visibility: 7mi
Dew Point: 52°   Wind: 3mph
Humidity: 93%   Direction: 160°SSE
Pressure: 29.79"   Gusts: NA
Location:  45.82°N, 122.74°W
Report Text: KSPB 220853Z AUTO 16003KT 7SM -RA BKN028 OVC034 12/11 A2979 RMK AO2 RAB0756 SLP088 P0001 60012 T01220111 58018
Loading
Personal Weather Stations






























Interactive Weather Map
Tropical Storm Tracking
New forecast layout! Learn more

10-Day Weather Forecast

Advertisements
Track Severe Weather on mobile